createdAt,value
2023-11-18T00:01:35.721Z,96627.31
2023-11-18T00:04:02.707Z,96630.97
2023-11-18T00:06:29.360Z,96640.84
2023-11-18T00:08:56.176Z,96642.53
2023-11-18T00:11:22.823Z,96633.56
2023-11-18T00:13:49.555Z,96639.72
2023-11-18T00:16:17.742Z,96638.13
2023-11-18T00:18:44.614Z,96641.63
2023-11-18T00:21:12.851Z,96638.91
2023-11-18T00:23:40.081Z,96640.59
2023-11-18T00:26:08.428Z,96638.00
2023-11-18T00:28:35.313Z,96639.72
2023-11-18T00:31:02.036Z,96642.13
2023-11-18T00:33:28.720Z,96645.16
2023-11-18T00:35:55.313Z,96639.78
2023-11-18T00:38:21.942Z,96644.69
2023-11-18T00:40:49.624Z,96637.44
2023-11-18T00:43:16.248Z,96646.75
2023-11-18T00:45:44.525Z,96647.88
2023-11-18T00:48:11.206Z,96653.34
2023-11-18T00:50:37.934Z,96646.84
2023-11-18T00:53:06.572Z,96659.09
2023-11-18T00:55:33.448Z,96652.09
2023-11-18T00:58:00.621Z,96652.41
2023-11-18T01:00:27.799Z,96662.88
2023-11-18T01:02:55.934Z,96665.69
2023-11-18T01:05:22.604Z,96653.09
2023-11-18T01:07:50.614Z,96655.72
2023-11-18T01:10:17.259Z,96657.97
2023-11-18T01:12:46.713Z,96653.09
2023-11-18T01:15:13.654Z,96654.88
2023-11-18T01:17:40.511Z,96651.63
2023-11-18T01:20:12.528Z,96657.66
2023-11-18T01:22:39.439Z,96662.31
2023-11-18T01:25:07.089Z,96662.88
2023-11-18T01:27:35.033Z,96661.53
2023-11-18T01:30:02.240Z,96670.25
2023-11-18T01:32:30.928Z,96668.19
2023-11-18T01:34:58.144Z,96665.34
2023-11-18T01:37:25.894Z,96671.09
2023-11-18T01:39:52.512Z,96671.09
2023-11-18T01:42:19.113Z,96682.94
2023-11-18T01:44:45.637Z,96684.09
2023-11-18T01:47:13.775Z,96684.81
2023-11-18T01:49:42.266Z,96678.88
2023-11-18T01:52:09.476Z,96671.09
2023-11-18T01:54:39.119Z,96682.28
2023-11-18T01:57:07.161Z,96675.09
2023-11-18T01:59:35.148Z,96677.72
2023-11-18T02:02:03.175Z,96676.25
2023-11-18T02:04:31.020Z,96691.84
2023-11-18T02:06:58.571Z,96683.50
2023-11-18T02:09:30.033Z,96680.78
2023-11-18T02:12:10.924Z,96690.88
2023-11-18T02:14:41.049Z,96693.69
2023-11-18T02:17:11.624Z,96687.69
2023-11-18T02:19:40.470Z,96690.06
2023-11-18T02:22:08.913Z,96689.03
2023-11-18T02:24:38.355Z,96691.47
2023-11-18T02:27:08.962Z,96700.69
2023-11-18T02:29:38.345Z,96695.56
2023-11-18T02:32:33.703Z,96695.56
2023-11-18T02:35:14.494Z,96685.47
2023-11-18T02:37:45.019Z,96689.00
2023-11-18T02:40:17.537Z,96682.75
2023-11-18T02:42:45.929Z,96686.69
2023-11-18T02:45:17.736Z,96692.66
2023-11-18T02:47:46.262Z,96696.53
2023-11-18T02:50:14.537Z,96697.59
2023-11-18T02:52:41.429Z,96695.91
2023-11-18T02:55:09.792Z,96688.38
2023-11-18T02:57:37.727Z,96689.88
2023-11-18T03:00:17.867Z,96697.50
2023-11-18T03:02:44.478Z,96687.72
2023-11-18T03:05:12.806Z,96692.50
2023-11-18T03:07:42.529Z,96690.16
2023-11-18T03:10:21.850Z,96698.91
2023-11-18T03:12:53.481Z,96702.94
2023-11-18T03:15:22.516Z,96702.16
2023-11-18T03:17:53.102Z,96699.47
2023-11-18T03:20:23.889Z,96695.19
2023-11-18T03:22:52.301Z,96704.53
2023-11-18T03:25:20.705Z,96704.41
2023-11-18T03:27:47.298Z,96710.78
2023-11-18T03:30:14.016Z,96710.41
2023-11-18T03:32:41.764Z,96709.53
2023-11-18T03:35:10.822Z,96720.97
2023-11-18T03:37:40.252Z,96719.59
2023-11-18T03:40:11.404Z,96724.84
2023-11-18T03:42:38.456Z,96716.63
2023-11-18T03:45:06.054Z,96728.66
2023-11-18T03:47:33.024Z,96732.88
2023-11-18T03:49:59.869Z,96741.44
2023-11-18T03:52:26.969Z,96741.88
2023-11-18T03:54:53.511Z,96745.41
2023-11-18T03:57:20.340Z,96739.63
2023-11-18T03:59:46.902Z,96748.25
2023-11-18T04:02:13.474Z,96756.81
2023-11-18T04:04:40.290Z,96749.69
2023-11-18T04:07:07.630Z,96750.72
2023-11-18T04:09:34.504Z,96748.41
2023-11-18T04:12:01.319Z,96747.81
2023-11-18T04:14:28.073Z,96742.59
2023-11-18T04:16:56.008Z,96736.63
2023-11-18T04:19:22.645Z,96742.59
2023-11-18T04:21:50.391Z,96737.38
2023-11-18T04:24:16.953Z,96748.97
2023-11-18T04:26:43.552Z,96736.56
2023-11-18T04:29:10.225Z,96738.75
2023-11-18T04:31:38.160Z,96740.06
2023-11-18T04:34:05.618Z,96738.91
2023-11-18T04:36:35.467Z,96749.13
2023-11-18T04:39:02.729Z,96740.72
2023-11-18T04:41:29.746Z,96736.72
2023-11-18T04:43:56.718Z,96739.13
2023-11-18T04:46:23.294Z,96724.69
2023-11-18T04:48:50.090Z,96734.25
2023-11-18T04:51:18.563Z,96731.84
2023-11-18T04:53:46.224Z,96710.75
2023-11-18T04:56:12.964Z,96741.94
2023-11-18T04:58:40.552Z,96738.09
2023-11-18T05:01:07.535Z,96724.41
2023-11-18T05:03:34.202Z,96740.78
2023-11-18T05:06:00.860Z,96750.72
2023-11-18T05:08:27.666Z,96739.84
2023-11-18T05:10:55.407Z,96748.72
2023-11-18T05:13:23.118Z,96737.00
2023-11-18T05:15:50.992Z,96751.44
2023-11-18T05:18:17.705Z,96751.72
2023-11-18T05:20:45.269Z,96740.84
2023-11-18T05:23:13.481Z,96735.56
2023-11-18T05:25:47.321Z,96728.06
2023-11-18T05:28:14.726Z,96718.06
2023-11-18T05:30:44.413Z,96706.31
2023-11-18T05:33:16.209Z,96731.78
2023-11-18T05:35:49.771Z,96723.00
2023-11-18T05:38:22.707Z,96722.31
2023-11-18T05:41:00.392Z,96720.91
2023-11-18T05:43:30.745Z,96723.91
2023-11-18T05:46:19.406Z,96723.31
2023-11-18T05:48:46.084Z,96727.72
2023-11-18T05:51:12.934Z,96739.56
2023-11-18T05:53:47.007Z,96741.16
2023-11-18T05:56:14.658Z,96743.56
2023-11-18T05:58:41.975Z,96749.28
2023-11-18T06:01:09.164Z,96743.41
2023-11-18T06:03:42.644Z,96753.13
2023-11-18T06:06:10.771Z,96757.91
2023-11-18T06:08:42.670Z,96763.56
2023-11-18T06:11:14.283Z,96769.63
2023-11-18T06:13:47.829Z,96778.81
2023-11-18T06:16:15.881Z,96786.34
2023-11-18T06:18:46.113Z,96772.06
2023-11-18T06:21:17.009Z,96771.88
2023-11-18T06:23:44.451Z,96772.66
2023-11-18T06:26:11.986Z,96774.91
2023-11-18T06:28:40.127Z,96770.47
2023-11-18T06:31:09.807Z,96762.91
2023-11-18T06:33:45.044Z,96772.34
2023-11-18T06:36:15.003Z,96780.06
2023-11-18T06:38:42.223Z,96764.09
2023-11-18T06:41:16.406Z,96769.25
2023-11-18T06:43:56.911Z,96767.88
2023-11-18T06:46:26.369Z,96773.22
2023-11-18T06:48:55.464Z,96771.63
2023-11-18T06:51:26.118Z,96763.22
2023-11-18T06:53:56.215Z,96764.97
2023-11-18T06:56:23.742Z,96760.03
2023-11-18T06:58:50.487Z,96770.03
2023-11-18T07:01:17.977Z,96771.63
2023-11-18T07:03:45.307Z,96783.66
2023-11-18T07:06:15.187Z,96778.88
2023-11-18T07:08:42.088Z,96775.25
2023-11-18T07:11:08.675Z,96773.81
2023-11-18T07:13:35.334Z,96781.34
2023-11-18T07:16:04.210Z,96772.72
2023-11-18T07:18:35.068Z,96782.72
2023-11-18T07:21:05.700Z,96776.34
2023-11-18T07:23:35.665Z,96783.97
2023-11-18T07:26:04.815Z,96788.97
2023-11-18T07:28:32.330Z,96785.91
2023-11-18T07:31:00.745Z,96774.81
2023-11-18T07:33:28.104Z,96795.84
2023-11-18T07:35:56.052Z,96787.44
2023-11-18T07:38:22.850Z,96793.22
2023-11-18T07:40:49.505Z,96793.84
2023-11-18T07:43:17.053Z,96796.94
2023-11-18T07:45:43.743Z,96794.53
2023-11-18T07:48:12.907Z,96796.50
2023-11-18T07:50:45.532Z,96805.94
2023-11-18T07:53:12.343Z,96800.03
2023-11-18T07:55:40.658Z,96798.56
2023-11-18T07:58:11.889Z,96799.97
2023-11-18T08:00:43.613Z,96789.50
2023-11-18T08:03:13.654Z,96788.38
2023-11-18T08:05:44.884Z,96790.91
2023-11-18T08:08:12.335Z,96796.91
2023-11-18T08:10:40.564Z,96798.19
2023-11-18T08:13:09.163Z,96802.41
2023-11-18T08:15:36.604Z,96807.66
2023-11-18T08:18:04.173Z,96794.00
2023-11-18T08:20:31.693Z,96802.47
2023-11-18T08:22:58.303Z,96785.50
2023-11-18T08:25:24.979Z,96805.00
2023-11-18T08:27:51.526Z,96797.38
2023-11-18T08:30:19.292Z,96804.22
2023-11-18T08:32:47.051Z,96798.84
2023-11-18T08:35:15.682Z,96820.59
2023-11-18T08:37:43.819Z,96821.38
2023-11-18T08:40:17.348Z,96827.91
2023-11-18T08:42:52.006Z,96828.47
2023-11-18T08:45:28.601Z,96812.97
2023-11-18T08:47:56.238Z,96808.75
2023-11-18T08:50:26.650Z,96809.00
2023-11-18T08:52:58.954Z,96801.75
2023-11-18T08:55:42.280Z,96797.88
2023-11-18T08:58:23.181Z,96800.38
2023-11-18T09:00:56.052Z,96801.53
2023-11-18T09:03:27.170Z,96803.22
2023-11-18T09:05:59.322Z,96797.06
2023-11-18T09:08:33.576Z,96792.41
2023-11-18T09:11:01.036Z,96789.91
2023-11-18T09:13:32.462Z,96796.16
2023-11-18T09:16:01.393Z,96790.03
2023-11-18T09:18:34.657Z,96795.25
2023-11-18T09:21:06.323Z,96798.09
2023-11-18T09:23:36.337Z,96806.53
2023-11-18T09:26:03.887Z,96805.16
2023-11-18T09:28:30.706Z,96796.38
2023-11-18T09:31:03.653Z,96797.03
2023-11-18T09:33:35.606Z,96794.56
2023-11-18T09:36:03.315Z,96788.25
2023-11-18T09:38:31.240Z,96799.38
2023-11-18T09:41:03.467Z,96806.59
2023-11-18T09:43:43.399Z,96805.97
2023-11-18T09:46:14.626Z,96798.53
2023-11-18T09:48:53.586Z,96792.88
2023-11-18T09:51:25.668Z,96780.09
2023-11-18T09:53:54.886Z,96792.66
2023-11-18T09:56:39.105Z,96797.06
2023-11-18T09:59:19.557Z,96801.34
2023-11-18T10:01:54.720Z,96808.38
2023-11-18T10:04:21.868Z,96801.47
2023-11-18T10:06:51.164Z,96795.25
2023-11-18T10:09:19.140Z,96791.56
2023-11-18T10:11:48.749Z,96787.91
2023-11-18T10:14:18.784Z,96781.56
2023-11-18T10:16:49.021Z,96783.06
2023-11-18T10:19:18.896Z,96787.06
2023-11-18T10:21:50.461Z,96777.22
2023-11-18T10:24:21.112Z,96755.88
2023-11-18T10:26:58.953Z,96755.38
2023-11-18T10:29:29.564Z,96758.88
2023-11-18T10:32:17.252Z,96758.47
2023-11-18T10:34:44.213Z,96754.31
2023-11-18T10:37:12.109Z,96744.06
2023-11-18T10:39:38.845Z,96753.03
2023-11-18T10:42:06.200Z,96753.66
2023-11-18T10:44:32.902Z,96752.22
2023-11-18T10:47:00.107Z,96748.59
2023-11-18T10:49:37.904Z,96760.94
2023-11-18T10:52:09.132Z,96770.31
2023-11-18T10:54:35.770Z,96760.81
2023-11-18T10:57:08.858Z,96763.03
2023-11-18T10:59:35.849Z,96762.72
2023-11-18T11:02:20.336Z,96764.63
2023-11-18T11:04:47.364Z,96763.38
2023-11-18T11:07:16.058Z,96763.63
2023-11-18T11:09:47.068Z,96765.47
2023-11-18T11:12:18.057Z,96758.13
2023-11-18T11:14:58.578Z,96762.69
2023-11-18T11:17:31.533Z,96769.63
2023-11-18T11:20:31.144Z,96760.53
2023-11-18T11:23:12.537Z,96758.66
2023-11-18T11:26:00.750Z,96760.91
2023-11-18T11:28:38.614Z,96775.97
2023-11-18T11:31:23.872Z,96769.31
2023-11-18T11:34:00.091Z,96778.00
2023-11-18T11:36:42.670Z,96775.53
2023-11-18T11:39:16.253Z,96778.22
2023-11-18T11:41:47.799Z,96767.69
2023-11-18T11:44:14.709Z,96774.31
2023-11-18T11:46:43.275Z,96763.41
2023-11-18T11:49:19.053Z,96759.66
2023-11-18T11:52:11.764Z,96761.66
2023-11-18T11:54:46.291Z,96745.94
2023-11-18T11:57:15.621Z,96754.19
2023-11-18T11:59:45.999Z,96743.16
2023-11-18T12:02:19.757Z,96743.00
2023-11-18T12:04:48.961Z,96737.03
2023-11-18T12:07:20.733Z,96738.63
2023-11-18T12:09:48.595Z,96739.47
2023-11-18T12:12:20.635Z,96731.09
2023-11-18T12:15:19.189Z,96730.84
2023-11-18T12:17:51.920Z,96735.06
2023-11-18T12:20:56.696Z,96738.06
2023-11-18T12:23:26.824Z,96727.66
2023-11-18T12:25:59.370Z,96724.69
2023-11-18T12:28:36.939Z,96722.78
2023-11-18T12:31:18.224Z,96715.78
2023-11-18T12:34:11.195Z,96708.28
2023-11-18T12:37:19.323Z,96701.56
2023-11-18T12:40:25.588Z,96696.56
2023-11-18T12:42:59.314Z,96690.66
2023-11-18T12:45:45.190Z,96680.88
2023-11-18T12:48:16.185Z,96685.41
2023-11-18T12:50:44.780Z,96678.25
2023-11-18T12:53:15.821Z,96676.81
2023-11-18T12:55:43.652Z,96675.78
2023-11-18T12:58:12.645Z,96664.72
2023-11-18T13:00:43.872Z,96666.09
2023-11-18T13:03:11.935Z,96669.97
2023-11-18T13:05:38.916Z,96680.47
2023-11-18T13:08:05.849Z,96672.78
2023-11-18T13:10:32.564Z,96663.50
2023-11-18T13:12:59.669Z,96658.59
2023-11-18T13:15:26.472Z,96663.16
2023-11-18T13:18:07.448Z,96662.34
2023-11-18T13:20:36.936Z,96646.91
2023-11-18T13:23:09.786Z,96648.22
2023-11-18T13:25:39.755Z,96641.28
2023-11-18T13:28:11.099Z,96635.63
2023-11-18T13:30:40.491Z,96630.38
2023-11-18T13:33:08.779Z,96633.97
2023-11-18T13:35:36.619Z,96633.50
2023-11-18T13:38:05.844Z,96642.41
2023-11-18T13:40:48.829Z,96636.50
2023-11-18T13:43:16.365Z,96628.63
2023-11-18T13:45:43.666Z,96633.31
2023-11-18T13:48:13.383Z,96618.28
2023-11-18T13:50:42.114Z,96633.31
2023-11-18T13:53:09.284Z,96635.72
2023-11-18T13:55:37.123Z,96632.44
2023-11-18T13:58:06.123Z,96638.81
2023-11-18T14:00:33.196Z,96636.09
2023-11-18T14:03:01.565Z,96633.72
2023-11-18T14:05:28.477Z,96628.16
2023-11-18T14:07:56.961Z,96619.72
2023-11-18T14:10:25.713Z,96623.94
2023-11-18T14:13:14.155Z,96618.94
2023-11-18T14:15:43.589Z,96616.56
2023-11-18T14:18:10.539Z,96621.78
2023-11-18T14:20:37.708Z,96618.94
2023-11-18T14:23:04.839Z,96617.69
2023-11-18T14:25:35.092Z,96613.59
2023-11-18T14:28:03.843Z,96612.28
2023-11-18T14:30:31.346Z,96611.13
2023-11-18T14:32:58.221Z,96599.53
2023-11-18T14:35:29.982Z,96599.53
2023-11-18T14:38:00.034Z,96586.81
2023-11-18T14:40:26.975Z,96592.06
2023-11-18T14:42:53.779Z,96589.13
2023-11-18T14:45:20.763Z,96593.50
2023-11-18T14:47:51.449Z,96606.50
2023-11-18T14:50:21.996Z,96618.72
2023-11-18T14:52:52.755Z,96614.63
2023-11-18T14:55:19.666Z,96611.38
2023-11-18T14:57:46.615Z,96593.41
2023-11-18T15:00:20.416Z,96587.59
2023-11-18T15:02:55.255Z,96589.59
2023-11-18T15:05:23.704Z,96580.59
2023-11-18T15:07:54.246Z,96580.03
2023-11-18T15:10:23.912Z,96582.09
2023-11-18T15:12:56.034Z,96578.91
2023-11-18T15:15:35.024Z,96582.78
2023-11-18T15:18:11.200Z,96573.69
2023-11-18T15:20:38.319Z,96558.41
2023-11-18T15:23:05.914Z,96548.75
2023-11-18T15:25:32.834Z,96543.72
2023-11-18T15:28:00.004Z,96535.09
2023-11-18T15:30:26.814Z,96528.25
2023-11-18T15:32:54.242Z,96534.28
2023-11-18T15:35:22.286Z,96535.09
2023-11-18T15:37:49.201Z,96533.03
2023-11-18T15:40:20.818Z,96524.94
2023-11-18T15:42:52.251Z,96522.56
2023-11-18T15:45:21.244Z,96509.69
2023-11-18T15:47:49.140Z,96497.06
2023-11-18T15:50:17.568Z,96502.84
2023-11-18T15:52:44.970Z,96510.16
2023-11-18T15:55:14.951Z,96525.88
2023-11-18T15:57:42.562Z,96520.41
2023-11-18T16:00:17.598Z,96512.00
2023-11-18T16:02:46.182Z,96517.78
2023-11-18T16:05:18.614Z,96519.59
2023-11-18T16:07:52.113Z,96524.28
2023-11-18T16:10:22.536Z,96525.88
2023-11-18T16:12:53.305Z,96527.38
2023-11-18T16:15:20.644Z,96532.69
2023-11-18T16:17:48.024Z,96533.97
2023-11-18T16:20:18.788Z,96516.09
2023-11-18T16:22:49.017Z,96523.16
2023-11-18T16:25:21.446Z,96518.97
2023-11-18T16:27:49.020Z,96504.50
2023-11-18T16:30:16.782Z,96494.59
2023-11-18T16:32:47.125Z,96490.72
2023-11-18T16:35:15.821Z,96490.94
2023-11-18T16:37:43.704Z,96498.66
2023-11-18T16:40:20.090Z,96483.34
2023-11-18T16:42:56.636Z,96493.88
2023-11-18T16:45:25.516Z,96492.78
2023-11-18T16:47:54.178Z,96490.59
2023-11-18T16:50:24.601Z,96502.69
2023-11-18T16:52:52.027Z,96500.63
2023-11-18T16:55:19.055Z,96495.41
2023-11-18T16:57:47.186Z,96492.44
2023-11-18T17:00:20.720Z,96509.13
2023-11-18T17:02:51.956Z,96518.81
2023-11-18T17:05:18.704Z,96521.09
2023-11-18T17:07:45.454Z,96530.31
2023-11-18T17:10:13.312Z,96518.25
2023-11-18T17:12:41.119Z,96538.75
2023-11-18T17:15:14.807Z,96535.56
2023-11-18T17:17:45.511Z,96535.69
2023-11-18T17:20:14.114Z,96530.22
2023-11-18T17:22:41.106Z,96529.19
2023-11-18T17:25:13.769Z,96528.50
2023-11-18T17:27:41.201Z,96535.56
2023-11-18T17:30:16.681Z,96527.13
2023-11-18T17:32:44.824Z,96525.09
2023-11-18T17:35:15.761Z,96525.72
2023-11-18T17:37:44.601Z,96514.47
2023-11-18T17:40:15.477Z,96517.66
2023-11-18T17:42:44.315Z,96519.31
2023-11-18T17:45:13.132Z,96504.31
2023-11-18T17:47:42.919Z,96504.75
2023-11-18T17:50:13.218Z,96506.06
2023-11-18T17:52:43.011Z,96513.72
2023-11-18T17:55:09.968Z,96505.78
2023-11-18T17:57:36.840Z,96507.81
2023-11-18T18:00:09.760Z,96514.19
2023-11-18T18:02:36.403Z,96507.81
2023-11-18T18:05:05.548Z,96510.53
2023-11-18T18:07:33.025Z,96505.78
2023-11-18T18:10:00.513Z,96509.50
2023-11-18T18:12:28.246Z,96508.13
2023-11-18T18:14:56.286Z,96506.22
2023-11-18T18:17:22.930Z,96502.50
2023-11-18T18:19:49.583Z,96498.38
2023-11-18T18:22:16.116Z,96495.34
2023-11-18T18:24:43.090Z,96488.50
2023-11-18T18:27:09.729Z,96482.91
2023-11-18T18:29:36.347Z,96474.22
2023-11-18T18:32:03.347Z,96478.63
2023-11-18T18:34:31.602Z,96476.00
2023-11-18T18:36:59.938Z,96486.47
2023-11-18T18:39:26.544Z,96480.28
2023-11-18T18:41:53.066Z,96487.34
2023-11-18T18:44:19.902Z,96486.22
2023-11-18T18:46:46.528Z,96473.81
2023-11-18T18:49:13.227Z,96457.31
2023-11-18T18:51:39.948Z,96448.91
2023-11-18T18:54:06.504Z,96447.97
2023-11-18T18:56:33.161Z,96443.19
2023-11-18T18:59:00.217Z,96455.72
2023-11-18T19:01:27.768Z,96461.28
2023-11-18T19:03:54.635Z,96466.38
2023-11-18T19:06:21.373Z,96462.72
2023-11-18T19:08:48.250Z,96470.97
2023-11-18T19:11:15.895Z,96468.78
2023-11-18T19:13:42.715Z,96471.25
2023-11-18T19:16:10.833Z,96458.44
2023-11-18T19:18:38.306Z,96445.72
2023-11-18T19:21:05.454Z,96454.09
2023-11-18T19:23:35.502Z,96439.56
2023-11-18T19:26:03.528Z,96433.66
2023-11-18T19:28:30.164Z,96427.31
2023-11-18T19:30:56.865Z,96414.31
2023-11-18T19:33:23.577Z,96410.03
2023-11-18T19:35:52.455Z,96400.66
2023-11-18T19:38:20.288Z,96392.16
2023-11-18T19:40:47.519Z,96384.56
2023-11-18T19:43:14.184Z,96370.09
2023-11-18T19:45:40.901Z,96362.94
2023-11-18T19:48:07.629Z,96362.25
2023-11-18T19:50:34.466Z,96362.47
2023-11-18T19:53:01.077Z,96353.81
2023-11-18T19:55:27.682Z,96357.38
2023-11-18T19:57:54.221Z,96359.53
2023-11-18T20:00:24.602Z,96363.88
2023-11-18T20:02:51.336Z,96367.06
2023-11-18T20:05:18.024Z,96365.84
2023-11-18T20:07:44.716Z,96377.53
2023-11-18T20:10:13.290Z,96383.16
2023-11-18T20:12:40.639Z,96369.81
2023-11-18T20:15:12.321Z,96377.09
2023-11-18T20:17:39.314Z,96357.25
2023-11-18T20:20:09.893Z,96356.53
2023-11-18T20:22:38.241Z,96356.13
2023-11-18T20:25:08.511Z,96344.41
2023-11-18T20:27:36.506Z,96332.59
2023-11-18T20:30:05.816Z,96324.66
2023-11-18T20:32:33.893Z,96302.94
2023-11-18T20:35:01.193Z,96295.00
2023-11-18T20:37:27.788Z,96290.81
2023-11-18T20:39:55.286Z,96287.50
2023-11-18T20:42:22.941Z,96276.03
2023-11-18T20:44:49.626Z,96268.16
2023-11-18T20:47:16.468Z,96263.84
2023-11-18T20:49:43.808Z,96253.94
2023-11-18T20:52:10.863Z,96245.13
2023-11-18T20:54:37.494Z,96248.22
2023-11-18T20:57:04.787Z,96247.34
2023-11-18T20:59:33.285Z,96242.31
2023-11-18T21:02:01.023Z,96238.31
2023-11-18T21:04:27.791Z,96233.56
2023-11-18T21:06:55.231Z,96236.75
2023-11-18T21:09:22.727Z,96231.19
2023-11-18T21:11:49.378Z,96227.34
2023-11-18T21:14:16.004Z,96213.19
2023-11-18T21:16:42.596Z,96201.22
2023-11-18T21:19:09.207Z,96194.88
2023-11-18T21:21:35.828Z,96192.81
2023-11-18T21:24:04.751Z,96171.28
2023-11-18T21:26:32.030Z,96165.91
2023-11-18T21:28:58.682Z,96151.81
2023-11-18T21:31:25.599Z,96146.81
2023-11-18T21:33:52.357Z,96138.72
2023-11-18T21:36:22.992Z,96125.00
2023-11-18T21:41:20.403Z,96113.63
2023-11-18T21:43:47.074Z,96115.22
2023-11-18T21:46:13.808Z,96106.50
2023-11-18T21:48:41.960Z,96100.94
2023-11-18T21:51:11.918Z,96112.81
2023-11-18T21:53:41.537Z,96108.13
2023-11-18T21:56:08.609Z,96093.03
2023-11-18T21:58:35.247Z,96085.09
2023-11-18T22:01:01.793Z,96083.28
2023-11-18T22:03:30.150Z,96089.53
2023-11-18T22:05:57.010Z,96089.44
2023-11-18T22:08:23.756Z,96095.88
2023-11-18T22:10:51.648Z,96095.06
2023-11-18T22:13:18.202Z,96098.25
2023-11-18T22:15:45.336Z,96104.28
2023-11-18T22:18:11.894Z,96115.53
2023-11-18T22:20:42.280Z,96097.47
2023-11-18T22:23:08.894Z,96106.66
2023-11-18T22:25:37.067Z,96106.94
2023-11-18T22:28:04.251Z,96101.00
2023-11-18T22:30:31.189Z,96104.34
2023-11-18T22:33:01.729Z,96108.47
2023-11-18T22:35:28.603Z,96111.63
2023-11-18T22:37:57.625Z,96114.00
2023-11-18T22:40:24.329Z,96106.00
2023-11-18T22:42:51.097Z,96099.34
2023-11-18T22:45:18.135Z,96098.72
2023-11-18T22:47:45.949Z,96084.63
2023-11-18T22:50:16.212Z,96085.91
2023-11-18T22:52:43.605Z,96086.19
2023-11-18T22:55:15.952Z,96081.22
2023-11-18T22:57:43.879Z,96074.97
2023-11-18T23:00:30.101Z,96066.56
2023-11-18T23:02:56.908Z,96063.53
2023-11-18T23:05:26.631Z,96071.31
2023-11-18T23:07:54.120Z,96065.75
2023-11-18T23:10:20.901Z,96060.06
2023-11-18T23:12:48.291Z,96054.06
2023-11-18T23:15:15.537Z,96059.13
2023-11-18T23:17:43.754Z,96061.25
2023-11-18T23:20:13.714Z,96047.25
2023-11-18T23:22:43.754Z,96059.06
2023-11-18T23:25:15.865Z,96047.06
2023-11-18T23:27:45.898Z,96042.34
2023-11-18T23:30:15.141Z,96041.75
2023-11-18T23:32:45.445Z,96032.97
2023-11-18T23:35:17.481Z,96033.69
2023-11-18T23:37:47.361Z,96031.31
2023-11-18T23:40:20.580Z,96029.88
2023-11-18T23:42:49.023Z,96014.50
2023-11-18T23:45:16.117Z,96027.81
2023-11-18T23:47:44.130Z,96019.41
2023-11-18T23:50:14.696Z,96021.53
2023-11-18T23:52:41.261Z,96023.06
2023-11-18T23:55:14.067Z,95984.13
2023-11-18T23:57:41.928Z,96024.66
